createdAt,value
2023-04-28T00:00:17.297Z,100947.44
2023-04-28T00:03:06.342Z,100961.47
2023-04-28T00:05:36.581Z,100953.75
2023-04-28T00:08:06.680Z,100947.00
2023-04-28T00:10:36.110Z,100953.28
2023-04-28T00:13:05.156Z,100943.06
2023-04-28T00:15:34.090Z,100950.06
2023-04-28T00:18:03.098Z,100956.19
2023-04-28T00:20:31.895Z,100953.75
2023-04-28T00:23:02.144Z,100950.41
2023-04-28T00:25:31.195Z,100948.72
2023-04-28T00:28:00.277Z,100948.78
2023-04-28T00:30:30.933Z,100952.41
2023-04-28T00:32:59.953Z,100945.53
2023-04-28T00:35:28.790Z,100952.59
2023-04-28T00:37:57.679Z,100947.47
2023-04-28T00:40:34.979Z,100954.47
2023-04-28T00:43:04.898Z,100954.56
2023-04-28T00:45:33.790Z,100959.03
2023-04-28T00:48:03.748Z,100958.19
2023-04-28T00:50:32.515Z,100961.69
2023-04-28T00:53:02.172Z,100951.44
2023-04-28T00:55:36.229Z,100960.19
2023-04-28T00:58:06.747Z,100951.56
2023-04-28T01:00:35.713Z,100965.38
2023-04-28T01:03:05.175Z,100955.06
2023-04-28T01:05:38.059Z,100957.75
2023-04-28T01:08:07.463Z,100958.66
2023-04-28T01:10:45.260Z,100960.47
2023-04-28T01:13:23.790Z,100958.09
2023-04-28T01:15:53.749Z,100959.81
2023-04-28T01:18:23.597Z,100961.50
2023-04-28T01:20:52.438Z,100965.91
2023-04-28T01:23:21.830Z,100965.94
2023-04-28T01:25:51.972Z,100966.88
2023-04-28T01:28:20.934Z,100961.69
2023-04-28T01:30:49.612Z,100961.78
2023-04-28T01:33:18.597Z,100962.69
2023-04-28T01:35:47.304Z,100971.44
2023-04-28T01:38:16.295Z,100971.44
2023-04-28T01:40:46.367Z,100967.16
2023-04-28T01:43:16.957Z,100963.84
2023-04-28T01:45:46.185Z,100964.81
2023-04-28T01:48:15.134Z,100975.31
2023-04-28T01:50:43.893Z,100975.31
2023-04-28T01:53:14.267Z,100982.31
2023-04-28T01:55:43.082Z,100970.22
2023-04-28T01:58:12.302Z,100968.59
2023-04-28T02:00:42.474Z,100972.06
2023-04-28T02:03:11.819Z,100972.09
2023-04-28T02:05:40.484Z,100975.72
2023-04-28T02:08:09.530Z,100971.38
2023-04-28T02:10:38.347Z,100974.16
2023-04-28T02:13:07.479Z,100969.03
2023-04-28T02:15:40.594Z,100973.31
2023-04-28T02:18:11.300Z,100970.78
2023-04-28T02:20:42.072Z,100968.22
2023-04-28T02:23:11.041Z,100973.47
2023-04-28T02:25:39.793Z,100974.38
2023-04-28T02:28:08.770Z,100974.44
2023-04-28T02:30:37.518Z,100972.06
2023-04-28T02:33:06.450Z,100972.06
2023-04-28T02:35:36.740Z,100972.97
2023-04-28T02:38:05.767Z,100970.38
2023-04-28T02:40:34.448Z,100972.22
2023-04-28T02:43:03.468Z,100964.50
2023-04-28T02:45:32.252Z,100962.81
2023-04-28T02:48:03.673Z,100971.50
2023-04-28T02:50:32.382Z,100977.72
2023-04-28T02:53:02.666Z,100971.72
2023-04-28T02:55:32.225Z,100970.00
2023-04-28T02:58:01.306Z,100967.44
2023-04-28T03:00:30.681Z,100978.63
2023-04-28T03:02:59.992Z,100976.88
2023-04-28T03:05:29.217Z,100981.16
2023-04-28T03:07:58.999Z,100979.50
2023-04-28T03:10:29.411Z,100978.75
2023-04-28T03:12:58.452Z,100976.25
2023-04-28T03:15:27.159Z,100973.63
2023-04-28T03:17:56.229Z,100987.44
2023-04-28T03:20:26.152Z,100992.59
2023-04-28T03:22:55.299Z,100986.53
2023-04-28T03:25:24.597Z,100988.19
2023-04-28T03:27:56.067Z,101000.19
2023-04-28T03:30:24.835Z,100994.13
2023-04-28T03:32:53.871Z,100995.06
2023-04-28T03:35:22.886Z,100992.31
2023-04-28T03:37:52.139Z,100995.81
2023-04-28T03:40:20.985Z,100994.88
2023-04-28T03:43:20.430Z,100982.06
2023-04-28T03:46:07.985Z,100983.56
2023-04-28T03:48:37.163Z,100985.22
2023-04-28T03:51:06.198Z,100986.94
2023-04-28T03:53:35.114Z,100990.34
2023-04-28T03:56:03.803Z,100996.25
2023-04-28T03:58:34.281Z,100988.44
2023-04-28T04:01:03.253Z,100992.66
2023-04-28T04:03:32.752Z,100994.31
2023-04-28T04:06:02.027Z,101000.31
2023-04-28T04:08:32.933Z,100997.59
2023-04-28T04:11:02.609Z,101000.13
2023-04-28T04:13:33.989Z,100999.13
2023-04-28T04:16:08.317Z,101005.13
2023-04-28T04:18:37.861Z,101001.56
2023-04-28T04:21:22.270Z,101008.38
2023-04-28T04:23:53.194Z,101009.03
2023-04-28T04:26:22.313Z,101007.13
2023-04-28T04:28:54.066Z,101013.03
2023-04-28T04:31:23.087Z,101015.44
2023-04-28T04:33:53.476Z,101008.31
2023-04-28T04:36:23.614Z,101014.03
2023-04-28T04:38:54.360Z,101014.66
2023-04-28T04:41:24.897Z,101016.13
2023-04-28T04:44:06.204Z,101021.09
2023-04-28T04:46:41.168Z,101017.41
2023-04-28T04:49:10.322Z,101014.56
2023-04-28T04:51:39.090Z,101022.84
2023-04-28T04:54:08.629Z,101024.34
2023-04-28T04:56:38.542Z,101011.00
2023-04-28T04:59:09.146Z,101014.19
2023-04-28T05:01:46.980Z,101028.53
2023-04-28T05:04:16.529Z,101021.25
2023-04-28T05:06:45.975Z,101017.41
2023-04-28T05:09:14.916Z,101023.09
2023-04-28T05:11:43.637Z,101022.66
2023-04-28T05:14:14.061Z,101023.06
2023-04-28T05:16:44.162Z,101028.66
2023-04-28T05:19:18.179Z,101029.06
2023-04-28T05:21:48.062Z,101035.47
2023-04-28T05:24:17.417Z,101024.44
2023-04-28T05:26:46.325Z,101030.63
2023-04-28T05:29:16.750Z,101022.84
2023-04-28T05:31:45.559Z,101032.50
2023-04-28T05:34:14.807Z,101032.53
2023-04-28T05:36:45.796Z,101032.25
2023-04-28T05:39:15.572Z,101029.22
2023-04-28T05:41:44.453Z,101036.47
2023-04-28T05:44:13.815Z,101031.75
2023-04-28T05:46:43.942Z,101040.66
2023-04-28T05:49:12.927Z,101039.44
2023-04-28T05:51:41.643Z,101040.19
2023-04-28T05:54:10.841Z,101039.25
2023-04-28T05:56:44.931Z,101039.91
2023-04-28T05:59:14.590Z,101033.78
2023-04-28T06:01:44.940Z,101038.16
2023-04-28T06:04:14.630Z,101033.00
2023-04-28T06:06:43.637Z,101041.03
2023-04-28T06:09:12.656Z,101036.69
2023-04-28T06:11:41.310Z,101045.59
2023-04-28T06:14:11.484Z,101035.66
2023-04-28T06:16:40.164Z,101039.97
2023-04-28T06:19:10.981Z,101043.84
2023-04-28T06:21:39.625Z,101040.47
2023-04-28T06:24:08.779Z,101044.94
2023-04-28T06:26:38.316Z,101042.50
2023-04-28T06:29:07.421Z,101040.81
2023-04-28T06:31:37.152Z,101039.31
2023-04-28T06:34:06.550Z,101042.16
2023-04-28T06:36:37.081Z,101039.06
2023-04-28T06:39:07.140Z,101039.75
2023-04-28T06:41:37.052Z,101042.75
2023-04-28T06:44:07.433Z,101042.69
2023-04-28T06:46:38.452Z,101051.03
2023-04-28T06:49:08.042Z,101048.75
2023-04-28T06:51:38.166Z,101048.63
2023-04-28T06:54:07.315Z,101041.09
2023-04-28T06:56:37.364Z,101047.91
2023-04-28T06:59:06.394Z,101044.84
2023-04-28T07:01:35.261Z,101056.16
2023-04-28T07:04:04.426Z,101055.53
2023-04-28T07:06:33.201Z,101057.78
2023-04-28T07:09:04.631Z,101046.06
2023-04-28T07:11:33.773Z,101052.63
2023-04-28T07:14:02.889Z,101045.47
2023-04-28T07:16:31.845Z,101047.78
2023-04-28T07:19:01.063Z,101043.28
2023-04-28T07:21:29.808Z,101034.44
2023-04-28T07:23:58.972Z,101039.94
2023-04-28T07:26:29.181Z,101039.41
2023-04-28T07:28:58.225Z,101033.69
2023-04-28T07:31:26.991Z,101039.50
2023-04-28T07:33:56.469Z,101041.22
2023-04-28T07:36:25.274Z,101030.22
2023-04-28T07:38:54.619Z,101024.31
2023-04-28T07:41:23.872Z,101022.63
2023-04-28T07:43:54.215Z,101026.53
2023-04-28T07:46:23.871Z,101018.06
2023-04-28T07:48:52.941Z,101014.50
2023-04-28T07:51:21.807Z,101011.31
2023-04-28T07:53:51.002Z,101015.09
2023-04-28T07:56:19.821Z,101019.75
2023-04-28T07:58:49.037Z,101016.38
2023-04-28T08:01:19.257Z,101012.59
2023-04-28T08:03:48.605Z,101007.53
2023-04-28T08:06:17.667Z,101005.81
2023-04-28T08:08:47.231Z,101003.69
2023-04-28T08:11:16.010Z,101002.66
2023-04-28T08:13:44.969Z,101001.69
2023-04-28T08:16:13.885Z,100998.75
2023-04-28T08:18:44.348Z,101001.69
2023-04-28T08:21:13.127Z,100997.38
2023-04-28T08:23:42.181Z,100992.28
2023-04-28T08:26:10.945Z,101001.16
2023-04-28T08:28:40.447Z,101004.56
2023-04-28T08:31:09.156Z,100991.78
2023-04-28T08:33:39.114Z,100996.53
2023-04-28T08:36:11.958Z,100994.66
2023-04-28T08:38:41.652Z,100982.53
2023-04-28T08:41:10.648Z,100988.66
2023-04-28T08:43:42.910Z,100982.78
2023-04-28T08:46:12.361Z,100980.25
2023-04-28T08:48:45.197Z,100975.81
2023-04-28T08:51:26.816Z,100979.59
2023-04-28T08:56:35.845Z,100977.72
2023-04-28T08:59:06.261Z,100979.53
2023-04-28T09:01:36.191Z,100971.31
2023-04-28T09:04:05.609Z,100976.09
2023-04-28T09:06:39.272Z,100971.13
2023-04-28T09:09:22.681Z,100976.47
2023-04-28T09:11:56.654Z,100965.28
2023-04-28T09:14:25.868Z,100963.72
2023-04-28T09:16:55.094Z,100965.97
2023-04-28T09:19:24.761Z,100960.56
2023-04-28T09:21:56.749Z,100958.75
2023-04-28T09:24:31.379Z,100960.19
2023-04-28T09:27:01.038Z,100953.91
2023-04-28T09:29:30.487Z,100953.66
2023-04-28T09:32:16.127Z,100957.81
2023-04-28T09:34:47.078Z,100955.50
2023-04-28T09:37:22.560Z,100956.34
2023-04-28T09:39:54.105Z,100944.28
2023-04-28T09:42:36.639Z,100946.09
2023-04-28T09:45:08.288Z,100943.34
2023-04-28T09:47:39.293Z,100943.28
2023-04-28T09:50:12.779Z,100937.84
2023-04-28T09:52:45.943Z,100936.94
2023-04-28T09:55:15.370Z,100932.75
2023-04-28T09:57:47.919Z,100928.16
2023-04-28T10:00:20.699Z,100927.06
2023-04-28T10:02:52.866Z,100927.56
2023-04-28T10:05:24.246Z,100916.03
2023-04-28T10:07:55.503Z,100910.56
2023-04-28T10:10:25.277Z,100908.72
2023-04-28T10:12:54.395Z,100908.69
2023-04-28T10:15:24.815Z,100905.88
2023-04-28T10:17:55.358Z,100891.06
2023-04-28T10:20:26.247Z,100900.69
2023-04-28T10:23:18.571Z,100899.72
2023-04-28T10:25:56.190Z,100890.97
2023-04-28T10:28:26.326Z,100898.28
2023-04-28T10:31:12.191Z,100880.81
2023-04-28T10:33:42.687Z,100886.25
2023-04-28T10:36:12.338Z,100881.06
2023-04-28T10:39:13.299Z,100886.13
2023-04-28T10:41:42.405Z,100883.34
2023-04-28T10:44:44.875Z,100886.50
2023-04-28T10:47:14.027Z,100888.91
2023-04-28T10:50:11.748Z,100886.06
2023-04-28T10:52:51.105Z,100880.69
2023-04-28T10:55:33.694Z,100882.66
2023-04-28T10:58:33.603Z,100875.38
2023-04-28T11:01:32.044Z,100869.84
2023-04-28T11:04:10.875Z,100867.53
2023-04-28T11:06:41.863Z,100865.16
2023-04-28T11:09:49.895Z,100865.69
2023-04-28T11:12:20.011Z,100868.19
2023-04-28T11:14:48.971Z,100860.59
2023-04-28T11:17:19.508Z,100858.22
2023-04-28T11:19:51.313Z,100861.41
2023-04-28T11:22:22.754Z,100856.81
2023-04-28T11:24:58.909Z,100846.22
2023-04-28T11:27:30.900Z,100848.44
2023-04-28T11:30:01.570Z,100844.63
2023-04-28T11:32:32.586Z,100844.72
2023-04-28T11:35:01.705Z,100845.91
2023-04-28T11:37:30.595Z,100843.72
2023-04-28T11:39:59.670Z,100841.78
2023-04-28T11:42:29.704Z,100836.94
2023-04-28T11:44:58.575Z,100842.50
2023-04-28T11:47:32.994Z,100837.72
2023-04-28T11:50:03.419Z,100838.16
2023-04-28T11:52:32.324Z,100840.31
2023-04-28T11:55:02.567Z,100841.78
2023-04-28T11:57:32.866Z,100844.00
2023-04-28T12:00:21.809Z,100847.19
2023-04-28T12:02:51.057Z,100842.78
2023-04-28T12:05:22.260Z,100836.13
2023-04-28T12:07:51.235Z,100824.28
2023-04-28T12:10:20.626Z,100819.91
2023-04-28T12:12:53.155Z,100820.75
2023-04-28T12:15:24.859Z,100812.50
2023-04-28T12:17:53.901Z,100822.66
2023-04-28T12:20:37.935Z,100814.72
2023-04-28T12:23:07.924Z,100816.38
2023-04-28T12:25:45.743Z,100817.22
2023-04-28T12:28:16.100Z,100810.34
2023-04-28T12:30:45.528Z,100810.44
2023-04-28T12:33:25.359Z,100803.31
2023-04-28T12:35:55.288Z,100799.94
2023-04-28T12:38:24.670Z,100798.31
2023-04-28T12:40:54.244Z,100787.25
2023-04-28T12:43:25.796Z,100786.06
2023-04-28T12:45:56.639Z,100788.09
2023-04-28T12:48:25.625Z,100779.56
2023-04-28T12:50:54.736Z,100774.72
2023-04-28T12:53:23.344Z,100779.28
2023-04-28T12:55:52.519Z,100778.00
2023-04-28T12:58:21.374Z,100775.19
2023-04-28T13:00:51.774Z,100774.09
2023-04-28T13:03:21.525Z,100778.94
2023-04-28T13:05:51.593Z,100779.78
2023-04-28T13:08:20.241Z,100765.66
2023-04-28T13:10:49.195Z,100768.38
2023-04-28T13:13:17.795Z,100760.06
2023-04-28T13:15:47.189Z,100756.25
2023-04-28T13:18:17.332Z,100759.41
2023-04-28T13:20:46.308Z,100750.72
2023-04-28T13:23:14.977Z,100744.78
2023-04-28T13:25:44.523Z,100753.47
2023-04-28T13:28:14.519Z,100753.50
2023-04-28T13:30:43.446Z,100739.44
2023-04-28T13:33:12.109Z,100740.56
2023-04-28T13:35:42.442Z,100729.38
2023-04-28T13:38:11.235Z,100736.88
2023-04-28T13:40:40.137Z,100734.16
2023-04-28T13:43:08.834Z,100732.63
2023-04-28T13:45:37.966Z,100726.72
2023-04-28T13:48:07.054Z,100729.13
2023-04-28T13:50:38.136Z,100736.25
2023-04-28T13:53:09.604Z,100724.38
2023-04-28T13:55:39.117Z,100729.97
2023-04-28T13:58:07.903Z,100725.28
2023-04-28T14:00:37.629Z,100717.53
2023-04-28T14:03:06.475Z,100715.19
2023-04-28T14:05:48.223Z,100720.75
2023-04-28T14:08:20.595Z,100707.47
2023-04-28T14:10:50.639Z,100710.25
2023-04-28T14:13:20.524Z,100702.31
2023-04-28T14:15:58.506Z,100707.09
2023-04-28T14:18:28.576Z,100703.25
2023-04-28T14:20:57.795Z,100698.75
2023-04-28T14:23:28.741Z,100697.50
2023-04-28T14:25:58.202Z,100701.34
2023-04-28T14:28:27.048Z,100688.25
2023-04-28T14:30:56.558Z,100686.78
2023-04-28T14:33:25.364Z,100687.56
2023-04-28T14:35:54.443Z,100673.63
2023-04-28T14:38:24.356Z,100681.38
2023-04-28T14:40:54.772Z,100679.88
2023-04-28T14:43:23.974Z,100674.25
2023-04-28T14:45:53.612Z,100675.41
2023-04-28T14:48:23.053Z,100674.19
2023-04-28T14:50:52.421Z,100672.38
2023-04-28T14:53:21.217Z,100673.88
2023-04-28T14:55:50.225Z,100659.78
2023-04-28T14:58:20.315Z,100667.47
2023-04-28T15:00:49.362Z,100658.44
2023-04-28T15:03:18.226Z,100660.28
2023-04-28T15:05:47.256Z,100652.97
2023-04-28T15:08:16.093Z,100660.69
2023-04-28T15:10:45.392Z,100654.69
2023-04-28T15:13:14.060Z,100652.75
2023-04-28T15:15:44.359Z,100650.59
2023-04-28T15:18:13.149Z,100643.31
2023-04-28T15:20:42.261Z,100647.41
2023-04-28T15:23:11.265Z,100643.09
2023-04-28T15:25:40.152Z,100646.13
2023-04-28T15:28:08.977Z,100640.66
2023-04-28T15:30:38.196Z,100629.59
2023-04-28T15:33:09.524Z,100626.53
2023-04-28T15:35:39.216Z,100630.50
2023-04-28T15:38:08.414Z,100626.97
2023-04-28T15:40:39.462Z,100631.09
2023-04-28T15:43:09.146Z,100625.50
2023-04-28T15:45:39.744Z,100626.84
2023-04-28T15:48:12.097Z,100618.34
2023-04-28T15:50:41.764Z,100624.66
2023-04-28T15:53:10.447Z,100621.00
2023-04-28T15:55:39.401Z,100624.31
2023-04-28T15:58:09.465Z,100620.41
2023-04-28T16:00:40.661Z,100613.41
2023-04-28T16:03:11.130Z,100606.59
2023-04-28T16:05:40.412Z,100610.78
2023-04-28T16:08:09.160Z,100610.19
2023-04-28T16:10:41.181Z,100609.81
2023-04-28T16:13:11.342Z,100610.53
2023-04-28T16:15:41.851Z,100607.28
2023-04-28T16:18:12.086Z,100609.09
2023-04-28T16:20:41.304Z,100606.91
2023-04-28T16:23:13.899Z,100601.59
2023-04-28T16:25:43.114Z,100607.50
2023-04-28T16:28:11.818Z,100602.31
2023-04-28T16:30:41.085Z,100605.09
2023-04-28T16:33:11.368Z,100602.25
2023-04-28T16:35:40.404Z,100604.66
2023-04-28T16:38:09.101Z,100599.88
2023-04-28T16:40:38.112Z,100600.38
2023-04-28T16:43:06.916Z,100587.50
2023-04-28T16:45:35.956Z,100590.00
2023-04-28T16:48:05.078Z,100587.72
2023-04-28T16:50:36.144Z,100584.13
2023-04-28T16:53:04.786Z,100581.97
2023-04-28T16:55:33.799Z,100587.56
2023-04-28T16:58:02.450Z,100576.22
2023-04-28T17:00:31.654Z,100588.53
2023-04-28T17:03:00.581Z,100581.22
2023-04-28T17:05:29.951Z,100580.88
2023-04-28T17:08:00.202Z,100574.13
2023-04-28T17:10:29.350Z,100581.34
2023-04-28T17:12:58.015Z,100586.41
2023-04-28T17:15:27.277Z,100581.88
2023-04-28T17:17:56.351Z,100575.63
2023-04-28T17:20:25.813Z,100576.81
2023-04-28T17:22:54.773Z,100579.00
2023-04-28T17:25:25.733Z,100570.69
2023-04-28T17:27:54.615Z,100574.66
2023-04-28T17:30:25.976Z,100581.25
2023-04-28T17:32:55.462Z,100575.59
2023-04-28T17:35:24.598Z,100572.50
2023-04-28T17:37:53.385Z,100570.34
2023-04-28T17:40:24.172Z,100567.44
2023-04-28T17:42:56.625Z,100566.34
2023-04-28T17:45:25.907Z,100569.34
2023-04-28T17:47:56.385Z,100571.72
2023-04-28T17:50:25.837Z,100567.75
2023-04-28T17:52:54.561Z,100562.44
2023-04-28T17:55:23.542Z,100564.81
2023-04-28T17:57:53.771Z,100564.56
2023-04-28T18:00:23.028Z,100563.31
2023-04-28T18:02:52.648Z,100567.38
2023-04-28T18:05:24.106Z,100564.44
2023-04-28T18:07:52.951Z,100562.97
2023-04-28T18:10:22.044Z,100555.50
2023-04-28T18:12:53.507Z,100558.72
2023-04-28T18:15:24.087Z,100564.44
2023-04-28T18:17:53.050Z,100557.81
2023-04-28T18:20:22.240Z,100566.53
2023-04-28T18:22:51.222Z,100564.31
2023-04-28T18:25:20.655Z,100564.03
2023-04-28T18:27:49.374Z,100564.47
2023-04-28T18:30:18.428Z,100565.00
2023-04-28T18:32:49.588Z,100569.56
2023-04-28T18:35:19.203Z,100570.94
2023-04-28T18:37:48.270Z,100564.19
2023-04-28T18:40:17.477Z,100566.41
2023-04-28T18:42:46.606Z,100576.53
2023-04-28T18:45:15.999Z,100568.00
2023-04-28T18:47:44.701Z,100571.91
2023-04-28T18:50:15.418Z,100562.09
2023-04-28T18:52:44.235Z,100563.59
2023-04-28T18:55:14.612Z,100565.69
2023-04-28T18:57:43.527Z,100561.59
2023-04-28T19:00:12.848Z,100567.81
2023-04-28T19:02:41.840Z,100557.81
2023-04-28T19:05:11.888Z,100559.94
2023-04-28T19:07:42.135Z,100566.22
2023-04-28T19:10:14.065Z,100559.66
2023-04-28T19:12:42.786Z,100557.44
2023-04-28T19:15:11.851Z,100560.38
2023-04-28T19:17:40.813Z,100565.00
2023-04-28T19:20:10.622Z,100557.53
2023-04-28T19:22:43.798Z,100555.94
2023-04-28T19:25:13.733Z,100553.75
2023-04-28T19:27:44.062Z,100555.50
2023-04-28T19:30:15.075Z,100562.56
2023-04-28T19:32:44.083Z,100546.78
2023-04-28T19:35:13.274Z,100554.03
2023-04-28T19:37:44.072Z,100557.84
2023-04-28T19:40:14.290Z,100552.88
2023-04-28T19:42:42.980Z,100556.22
2023-04-28T19:45:12.759Z,100557.50
2023-04-28T19:47:41.555Z,100553.34
2023-04-28T19:50:11.662Z,100551.97
2023-04-28T19:52:40.361Z,100549.66
2023-04-28T19:55:11.538Z,100550.69
2023-04-28T19:57:40.946Z,100551.00
2023-04-28T20:00:11.504Z,100551.19
2023-04-28T20:02:40.452Z,100552.44
2023-04-28T20:05:10.165Z,100555.06
2023-04-28T20:07:40.428Z,100553.78
2023-04-28T20:10:11.776Z,100551.53
2023-04-28T20:12:41.180Z,100551.09
2023-04-28T20:15:10.717Z,100556.75
2023-04-28T20:17:39.632Z,100557.88
2023-04-28T20:20:10.070Z,100551.31
2023-04-28T20:22:38.880Z,100552.16
2023-04-28T20:25:10.931Z,100551.69
2023-04-28T20:27:39.705Z,100553.69
2023-04-28T20:30:10.166Z,100557.28
2023-04-28T20:32:39.451Z,100558.47
2023-04-28T20:35:08.983Z,100557.72
2023-04-28T20:37:37.858Z,100558.88
2023-04-28T20:40:10.235Z,100564.13
2023-04-28T20:42:40.713Z,100564.50
2023-04-28T20:45:11.491Z,100559.53
2023-04-28T20:47:40.650Z,100559.75
2023-04-28T20:50:12.162Z,100548.72
2023-04-28T20:52:40.912Z,100553.81
2023-04-28T20:55:11.466Z,100557.44
2023-04-28T20:57:41.629Z,100552.47
2023-04-28T21:00:13.041Z,100558.84
2023-04-28T21:02:41.847Z,100552.78
2023-04-28T21:05:11.188Z,100552.13
2023-04-28T21:07:39.825Z,100547.97
2023-04-28T21:10:10.675Z,100545.53
2023-04-28T21:12:39.464Z,100542.16
2023-04-28T21:15:10.700Z,100546.09
2023-04-28T21:17:39.671Z,100543.72
2023-04-28T21:20:09.848Z,100540.28
2023-04-28T21:22:38.933Z,100541.50
2023-04-28T21:25:08.753Z,100546.84
2023-04-28T21:27:37.432Z,100539.22
2023-04-28T21:30:10.261Z,100539.50
2023-04-28T21:32:39.130Z,100542.28
2023-04-28T21:35:09.319Z,100545.13
2023-04-28T21:37:38.120Z,100538.25
2023-04-28T21:40:08.973Z,100541.28
2023-04-28T21:42:37.720Z,100538.91
2023-04-28T21:45:10.239Z,100543.50
2023-04-28T21:47:42.060Z,100530.47
2023-04-28T21:50:12.538Z,100533.19
2023-04-28T21:52:41.222Z,100538.41
2023-04-28T21:55:11.013Z,100537.00
2023-04-28T21:57:39.692Z,100538.97
2023-04-28T22:00:12.699Z,100534.72
2023-04-28T22:02:44.686Z,100528.75
2023-04-28T22:05:13.821Z,100529.16
2023-04-28T22:07:42.630Z,100536.19
2023-04-28T22:10:13.382Z,100535.53
2023-04-28T22:12:42.112Z,100538.41
2023-04-28T22:15:12.941Z,100531.66
2023-04-28T22:17:41.694Z,100529.22
2023-04-28T22:20:11.941Z,100534.44
2023-04-28T22:22:41.714Z,100533.53
2023-04-28T22:25:11.673Z,100532.09
2023-04-28T22:27:40.609Z,100534.03
2023-04-28T22:30:12.578Z,100525.41
2023-04-28T22:32:44.586Z,100527.13
2023-04-28T22:35:14.188Z,100522.88
2023-04-28T22:37:43.607Z,100517.06
2023-04-28T22:40:13.091Z,100523.50
2023-04-28T22:42:43.561Z,100517.31
2023-04-28T22:45:14.587Z,100520.00
2023-04-28T22:47:43.580Z,100514.19
2023-04-28T22:50:13.047Z,100516.81
2023-04-28T22:52:41.882Z,100512.00
2023-04-28T22:55:11.893Z,100513.00
2023-04-28T22:57:40.606Z,100507.09
2023-04-28T23:00:11.193Z,100511.44
2023-04-28T23:02:42.355Z,100507.63
2023-04-28T23:05:11.795Z,100509.50
2023-04-28T23:07:40.776Z,100504.25
2023-04-28T23:10:11.528Z,100506.28
2023-04-28T23:12:41.849Z,100501.97
2023-04-28T23:15:11.928Z,100493.94
2023-04-28T23:17:43.061Z,100493.34
2023-04-28T23:20:13.300Z,100499.94
2023-04-28T23:22:41.985Z,100498.16
2023-04-28T23:25:11.577Z,100496.97
2023-04-28T23:27:40.208Z,100491.25
2023-04-28T23:30:11.117Z,100487.50
2023-04-28T23:32:42.459Z,100490.19
2023-04-28T23:35:11.542Z,100493.94
2023-04-28T23:37:40.160Z,100486.16
2023-04-28T23:40:11.757Z,100480.25
2023-04-28T23:42:41.092Z,100477.47
2023-04-28T23:45:11.323Z,100475.94
2023-04-28T23:47:41.763Z,100471.63
2023-04-28T23:50:11.772Z,100475.19
2023-04-28T23:52:41.125Z,100469.19
2023-04-28T23:55:13.021Z,100470.78
2023-04-28T23:57:41.955Z,100458.72
